sensor_id;sensor_type;location;lat;lon;timestamp;P1;durP1;ratioP1;P2;durP2;ratioP2
7487;SDS011;3785;52.260;4.728;2023-10-13T00:03:08;8.13;;;3.47;;
7487;SDS011;3785;52.260;4.728;2023-10-13T00:06:35;6.15;;;3.88;;
7487;SDS011;3785;52.260;4.728;2023-10-13T00:09:57;8.13;;;4.28;;
7487;SDS011;3785;52.260;4.728;2023-10-13T00:13:19;6.13;;;4.20;;
7487;SDS011;3785;52.260;4.728;2023-10-13T00:16:42;7.57;;;4.10;;
7487;SDS011;3785;52.260;4.728;2023-10-13T00:20:21;8.38;;;3.95;;
7487;SDS011;3785;52.260;4.728;2023-10-13T00:24:00;7.88;;;3.58;;
7487;SDS011;3785;52.260;4.728;2023-10-13T00:27:26;6.03;;;3.28;;
7487;SDS011;3785;52.260;4.728;2023-10-13T00:30:50;6.85;;;3.25;;
7487;SDS011;3785;52.260;4.728;2023-10-13T00:34:20;9.10;;;2.85;;
7487;SDS011;3785;52.260;4.728;2023-10-13T00:37:52;7.78;;;3.20;;
7487;SDS011;3785;52.260;4.728;2023-10-13T00:41:15;5.63;;;2.53;;
7487;SDS011;3785;52.260;4.728;2023-10-13T00:44:38;5.97;;;3.10;;
7487;SDS011;3785;52.260;4.728;2023-10-13T00:48:02;6.05;;;3.08;;
7487;SDS011;3785;52.260;4.728;2023-10-13T00:51:30;9.07;;;2.90;;
7487;SDS011;3785;52.260;4.728;2023-10-13T00:55:07;5.18;;;3.03;;
7487;SDS011;3785;52.260;4.728;2023-10-13T00:58:28;6.10;;;3.33;;
7487;SDS011;3785;52.260;4.728;2023-10-13T01:01:49;7.47;;;3.88;;
7487;SDS011;3785;52.260;4.728;2023-10-13T01:05:15;10.55;;;4.85;;
7487;SDS011;3785;52.260;4.728;2023-10-13T01:08:39;7.65;;;4.40;;
7487;SDS011;3785;52.260;4.728;2023-10-13T01:12:04;8.57;;;4.65;;
7487;SDS011;3785;52.260;4.728;2023-10-13T01:15:25;9.25;;;4.50;;
7487;SDS011;3785;52.260;4.728;2023-10-13T01:18:50;9.32;;;4.00;;
7487;SDS011;3785;52.260;4.728;2023-10-13T01:22:11;8.70;;;4.53;;
7487;SDS011;3785;52.260;4.728;2023-10-13T01:25:31;7.03;;;3.90;;
7487;SDS011;3785;52.260;4.728;2023-10-13T01:28:59;6.20;;;4.30;;
7487;SDS011;3785;52.260;4.728;2023-10-13T01:32:20;8.60;;;4.50;;
7487;SDS011;3785;52.260;4.728;2023-10-13T01:35:42;10.90;;;5.35;;
7487;SDS011;3785;52.260;4.728;2023-10-13T01:39:07;13.95;;;7.03;;
7487;SDS011;3785;52.260;4.728;2023-10-13T01:42:31;11.38;;;6.47;;
7487;SDS011;3785;52.260;4.728;2023-10-13T01:45:51;13.00;;;7.43;;
7487;SDS011;3785;52.260;4.728;2023-10-13T01:49:13;15.98;;;8.05;;
7487;SDS011;3785;52.260;4.728;2023-10-13T01:52:37;17.33;;;8.68;;
7487;SDS011;3785;52.260;4.728;2023-10-13T01:55:57;14.32;;;7.85;;
7487;SDS011;3785;52.260;4.728;2023-10-13T01:59:18;19.35;;;9.07;;
7487;SDS011;3785;52.260;4.728;2023-10-13T02:02:40;16.52;;;8.68;;
7487;SDS011;3785;52.260;4.728;2023-10-13T02:06:05;18.35;;;8.55;;
7487;SDS011;3785;52.260;4.728;2023-10-13T02:09:25;16.38;;;8.57;;
7487;SDS011;3785;52.260;4.728;2023-10-13T02:12:46;11.77;;;8.15;;
7487;SDS011;3785;52.260;4.728;2023-10-13T02:16:06;18.65;;;8.60;;
7487;SDS011;3785;52.260;4.728;2023-10-13T02:19:27;14.27;;;7.53;;
7487;SDS011;3785;52.260;4.728;2023-10-13T02:22:48;12.55;;;6.97;;
7487;SDS011;3785;52.260;4.728;2023-10-13T02:26:12;17.42;;;7.43;;
7487;SDS011;3785;52.260;4.728;2023-10-13T02:29:35;11.95;;;6.68;;
7487;SDS011;3785;52.260;4.728;2023-10-13T02:32:59;15.32;;;6.80;;
7487;SDS011;3785;52.260;4.728;2023-10-13T02:36:25;12.13;;;6.78;;
7487;SDS011;3785;52.260;4.728;2023-10-13T02:39:56;12.07;;;6.57;;
7487;SDS011;3785;52.260;4.728;2023-10-13T02:43:17;10.50;;;6.25;;
7487;SDS011;3785;52.260;4.728;2023-10-13T02:46:41;14.43;;;7.72;;
7487;SDS011;3785;52.260;4.728;2023-10-13T02:50:03;12.65;;;7.30;;
7487;SDS011;3785;52.260;4.728;2023-10-13T02:53:31;11.23;;;7.72;;
7487;SDS011;3785;52.260;4.728;2023-10-13T02:56:52;14.02;;;8.23;;
7487;SDS011;3785;52.260;4.728;2023-10-13T03:00:20;14.60;;;7.57;;
7487;SDS011;3785;52.260;4.728;2023-10-13T03:03:44;13.30;;;7.88;;
7487;SDS011;3785;52.260;4.728;2023-10-13T03:07:07;13.50;;;7.30;;
7487;SDS011;3785;52.260;4.728;2023-10-13T03:10:28;12.90;;;8.25;;
7487;SDS011;3785;52.260;4.728;2023-10-13T03:13:49;15.30;;;9.18;;
7487;SDS011;3785;52.260;4.728;2023-10-13T03:17:11;13.57;;;8.85;;
7487;SDS011;3785;52.260;4.728;2023-10-13T03:20:37;15.20;;;9.55;;
7487;SDS011;3785;52.260;4.728;2023-10-13T03:24:01;15.55;;;9.75;;
7487;SDS011;3785;52.260;4.728;2023-10-13T03:27:26;14.60;;;9.32;;
7487;SDS011;3785;52.260;4.728;2023-10-13T03:31:00;16.27;;;8.70;;
7487;SDS011;3785;52.260;4.728;2023-10-13T03:34:21;14.48;;;9.05;;
7487;SDS011;3785;52.260;4.728;2023-10-13T03:37:42;14.23;;;7.88;;
7487;SDS011;3785;52.260;4.728;2023-10-13T03:41:02;16.27;;;8.57;;
7487;SDS011;3785;52.260;4.728;2023-10-13T03:44:38;12.85;;;6.72;;
7487;SDS011;3785;52.260;4.728;2023-10-13T03:47:59;11.10;;;6.65;;
7487;SDS011;3785;52.260;4.728;2023-10-13T03:51:20;10.68;;;5.53;;
7487;SDS011;3785;52.260;4.728;2023-10-13T03:54:40;9.60;;;5.55;;
7487;SDS011;3785;52.260;4.728;2023-10-13T03:58:01;7.93;;;4.70;;
7487;SDS011;3785;52.260;4.728;2023-10-13T04:01:23;6.53;;;4.60;;
7487;SDS011;3785;52.260;4.728;2023-10-13T04:05:01;6.10;;;3.85;;
7487;SDS011;3785;52.260;4.728;2023-10-13T04:08:29;11.10;;;4.35;;
7487;SDS011;3785;52.260;4.728;2023-10-13T04:11:49;6.72;;;3.67;;
7487;SDS011;3785;52.260;4.728;2023-10-13T04:15:32;5.25;;;3.58;;
7487;SDS011;3785;52.260;4.728;2023-10-13T04:19:21;8.52;;;3.67;;
7487;SDS011;3785;52.260;4.728;2023-10-13T04:22:49;8.25;;;3.70;;
7487;SDS011;3785;52.260;4.728;2023-10-13T04:26:09;7.10;;;3.15;;
7487;SDS011;3785;52.260;4.728;2023-10-13T04:29:41;5.38;;;3.38;;
7487;SDS011;3785;52.260;4.728;2023-10-13T04:33:17;3.97;;;2.55;;
7487;SDS011;3785;52.260;4.728;2023-10-13T04:36:57;6.00;;;2.95;;
7487;SDS011;3785;52.260;4.728;2023-10-13T04:40:40;6.45;;;3.15;;
7487;SDS011;3785;52.260;4.728;2023-10-13T04:44:18;7.15;;;3.33;;
7487;SDS011;3785;52.260;4.728;2023-10-13T04:47:58;5.55;;;3.45;;
7487;SDS011;3785;52.260;4.728;2023-10-13T04:51:38;6.20;;;3.80;;
7487;SDS011;3785;52.260;4.728;2023-10-13T04:55:28;6.05;;;3.33;;
7487;SDS011;3785;52.260;4.728;2023-10-13T04:59:19;6.78;;;3.58;;
7487;SDS011;3785;52.260;4.728;2023-10-13T05:03:03;6.78;;;3.72;;
7487;SDS011;3785;52.260;4.728;2023-10-13T05:06:42;5.22;;;3.10;;
7487;SDS011;3785;52.260;4.728;2023-10-13T05:10:05;5.18;;;3.60;;
7487;SDS011;3785;52.260;4.728;2023-10-13T05:13:44;7.03;;;3.22;;
7487;SDS011;3785;52.260;4.728;2023-10-13T05:17:24;4.50;;;3.10;;
7487;SDS011;3785;52.260;4.728;2023-10-13T05:21:03;8.00;;;2.55;;
7487;SDS011;3785;52.260;4.728;2023-10-13T05:24:42;5.03;;;2.83;;
7487;SDS011;3785;52.260;4.728;2023-10-13T05:28:32;3.83;;;2.78;;
7487;SDS011;3785;52.260;4.728;2023-10-13T05:32:11;6.07;;;2.80;;
7487;SDS011;3785;52.260;4.728;2023-10-13T05:35:50;4.35;;;2.65;;
7487;SDS011;3785;52.260;4.728;2023-10-13T05:39:29;5.85;;;2.83;;
7487;SDS011;3785;52.260;4.728;2023-10-13T05:43:08;4.90;;;2.30;;
7487;SDS011;3785;52.260;4.728;2023-10-13T05:46:47;6.82;;;3.33;;
7487;SDS011;3785;52.260;4.728;2023-10-13T05:50:26;4.47;;;2.45;;
7487;SDS011;3785;52.260;4.728;2023-10-13T05:53:47;6.05;;;2.92;;
7487;SDS011;3785;52.260;4.728;2023-10-13T05:57:26;6.20;;;3.25;;
7487;SDS011;3785;52.260;4.728;2023-10-13T06:01:05;5.38;;;2.88;;
7487;SDS011;3785;52.260;4.728;2023-10-13T06:04:44;5.70;;;3.22;;
7487;SDS011;3785;52.260;4.728;2023-10-13T06:08:23;6.22;;;2.88;;
7487;SDS011;3785;52.260;4.728;2023-10-13T06:12:02;7.50;;;3.10;;
7487;SDS011;3785;52.260;4.728;2023-10-13T06:15:42;6.90;;;3.17;;
7487;SDS011;3785;52.260;4.728;2023-10-13T06:19:21;5.25;;;2.60;;
7487;SDS011;3785;52.260;4.728;2023-10-13T06:23:00;7.28;;;3.30;;
7487;SDS011;3785;52.260;4.728;2023-10-13T06:26:39;5.68;;;3.00;;
7487;SDS011;3785;52.260;4.728;2023-10-13T06:30:18;6.30;;;2.67;;
7487;SDS011;3785;52.260;4.728;2023-10-13T06:33:39;5.93;;;2.90;;
7487;SDS011;3785;52.260;4.728;2023-10-13T06:37:05;6.05;;;3.03;;
7487;SDS011;3785;52.260;4.728;2023-10-13T06:40:44;6.57;;;3.13;;
7487;SDS011;3785;52.260;4.728;2023-10-13T06:44:08;6.10;;;3.20;;
7487;SDS011;3785;52.260;4.728;2023-10-13T06:47:35;5.93;;;2.65;;
7487;SDS011;3785;52.260;4.728;2023-10-13T06:51:02;7.05;;;3.03;;
7487;SDS011;3785;52.260;4.728;2023-10-13T06:54:37;5.72;;;3.28;;
7487;SDS011;3785;52.260;4.728;2023-10-13T06:57:59;8.50;;;3.95;;
7487;SDS011;3785;52.260;4.728;2023-10-13T07:01:20;5.38;;;2.70;;
7487;SDS011;3785;52.260;4.728;2023-10-13T07:04:43;4.68;;;2.80;;
7487;SDS011;3785;52.260;4.728;2023-10-13T07:08:07;5.38;;;3.45;;
7487;SDS011;3785;52.260;4.728;2023-10-13T07:11:28;9.07;;;3.75;;
7487;SDS011;3785;52.260;4.728;2023-10-13T07:14:58;8.90;;;4.57;;
7487;SDS011;3785;52.260;4.728;2023-10-13T07:18:30;13.88;;;5.50;;
7487;SDS011;3785;52.260;4.728;2023-10-13T07:21:58;10.73;;;6.10;;
7487;SDS011;3785;52.260;4.728;2023-10-13T07:25:19;8.30;;;5.40;;
7487;SDS011;3785;52.260;4.728;2023-10-13T07:28:44;8.60;;;5.57;;
7487;SDS011;3785;52.260;4.728;2023-10-13T07:32:04;9.02;;;5.10;;
7487;SDS011;3785;52.260;4.728;2023-10-13T07:35:32;7.43;;;4.85;;
7487;SDS011;3785;52.260;4.728;2023-10-13T07:38:55;9.43;;;4.65;;
7487;SDS011;3785;52.260;4.728;2023-10-13T07:42:40;8.57;;;5.13;;
7487;SDS011;3785;52.260;4.728;2023-10-13T07:46:01;10.95;;;5.13;;
7487;SDS011;3785;52.260;4.728;2023-10-13T07:49:30;7.75;;;4.70;;
7487;SDS011;3785;52.260;4.728;2023-10-13T07:52:52;7.65;;;5.18;;
7487;SDS011;3785;52.260;4.728;2023-10-13T07:56:31;7.65;;;4.82;;
7487;SDS011;3785;52.260;4.728;2023-10-13T07:59:52;8.13;;;5.07;;
7487;SDS011;3785;52.260;4.728;2023-10-13T08:03:24;11.60;;;4.78;;
7487;SDS011;3785;52.260;4.728;2023-10-13T08:06:57;8.13;;;4.43;;
7487;SDS011;3785;52.260;4.728;2023-10-13T08:10:37;8.55;;;4.78;;
7487;SDS011;3785;52.260;4.728;2023-10-13T08:13:58;10.35;;;4.85;;
7487;SDS011;3785;52.260;4.728;2023-10-13T08:17:19;10.48;;;4.50;;
7487;SDS011;3785;52.260;4.728;2023-10-13T08:20:45;9.23;;;3.97;;
7487;SDS011;3785;52.260;4.728;2023-10-13T08:24:06;10.45;;;5.00;;
7487;SDS011;3785;52.260;4.728;2023-10-13T08:27:27;8.13;;;4.60;;
7487;SDS011;3785;52.260;4.728;2023-10-13T08:30:54;7.82;;;4.07;;
7487;SDS011;3785;52.260;4.728;2023-10-13T08:34:16;9.45;;;3.90;;
7487;SDS011;3785;52.260;4.728;2023-10-13T08:37:43;6.68;;;3.75;;
7487;SDS011;3785;52.260;4.728;2023-10-13T08:41:07;9.45;;;4.43;;
7487;SDS011;3785;52.260;4.728;2023-10-13T08:44:38;7.57;;;3.92;;
7487;SDS011;3785;52.260;4.728;2023-10-13T08:48:04;8.20;;;4.00;;
7487;SDS011;3785;52.260;4.728;2023-10-13T08:51:35;7.25;;;3.83;;
7487;SDS011;3785;52.260;4.728;2023-10-13T08:55:25;11.63;;;4.40;;
7487;SDS011;3785;52.260;4.728;2023-10-13T08:58:59;9.02;;;3.70;;
7487;SDS011;3785;52.260;4.728;2023-10-13T09:02:23;7.75;;;3.85;;
7487;SDS011;3785;52.260;4.728;2023-10-13T09:06:02;8.70;;;3.80;;
7487;SDS011;3785;52.260;4.728;2023-10-13T09:09:30;6.72;;;4.03;;
7487;SDS011;3785;52.260;4.728;2023-10-13T09:12:56;11.80;;;4.13;;
7487;SDS011;3785;52.260;4.728;2023-10-13T09:16:23;8.07;;;3.53;;
7487;SDS011;3785;52.260;4.728;2023-10-13T09:20:03;7.22;;;4.07;;
7487;SDS011;3785;52.260;4.728;2023-10-13T09:23:52;8.70;;;3.70;;
7487;SDS011;3785;52.260;4.728;2023-10-13T09:27:33;8.93;;;3.90;;
7487;SDS011;3785;52.260;4.728;2023-10-13T09:30:57;6.95;;;3.75;;
7487;SDS011;3785;52.260;4.728;2023-10-13T09:34:21;9.98;;;3.67;;
7487;SDS011;3785;52.260;4.728;2023-10-13T09:37:49;10.63;;;4.18;;
7487;SDS011;3785;52.260;4.728;2023-10-13T09:41:10;7.65;;;4.15;;
7487;SDS011;3785;52.260;4.728;2023-10-13T09:44:46;10.45;;;3.97;;
7487;SDS011;3785;52.260;4.728;2023-10-13T09:48:11;8.00;;;3.90;;
7487;SDS011;3785;52.260;4.728;2023-10-13T09:51:36;9.50;;;4.30;;
7487;SDS011;3785;52.260;4.728;2023-10-13T09:55:21;6.72;;;3.95;;
7487;SDS011;3785;52.260;4.728;2023-10-13T09:58:55;6.47;;;3.67;;
7487;SDS011;3785;52.260;4.728;2023-10-13T10:02:27;5.10;;;3.38;;
7487;SDS011;3785;52.260;4.728;2023-10-13T10:05:55;8.52;;;3.70;;
7487;SDS011;3785;52.260;4.728;2023-10-13T10:09:26;7.20;;;3.55;;
7487;SDS011;3785;52.260;4.728;2023-10-13T10:13:07;8.25;;;3.33;;
7487;SDS011;3785;52.260;4.728;2023-10-13T10:16:43;6.63;;;3.25;;
7487;SDS011;3785;52.260;4.728;2023-10-13T10:20:09;7.00;;;3.15;;
7487;SDS011;3785;52.260;4.728;2023-10-13T10:23:39;6.40;;;3.47;;
7487;SDS011;3785;52.260;4.728;2023-10-13T10:27:03;6.65;;;3.38;;
7487;SDS011;3785;52.260;4.728;2023-10-13T10:30:28;5.75;;;3.45;;
7487;SDS011;3785;52.260;4.728;2023-10-13T10:33:49;6.85;;;3.00;;
7487;SDS011;3785;52.260;4.728;2023-10-13T10:37:10;7.15;;;3.10;;
7487;SDS011;3785;52.260;4.728;2023-10-13T10:40:32;6.30;;;3.13;;
7487;SDS011;3785;52.260;4.728;2023-10-13T10:44:11;7.68;;;4.07;;
7487;SDS011;3785;52.260;4.728;2023-10-13T10:47:58;5.88;;;2.88;;
7487;SDS011;3785;52.260;4.728;2023-10-13T10:51:19;4.82;;;2.70;;
7487;SDS011;3785;52.260;4.728;2023-10-13T10:54:44;6.22;;;3.33;;
7487;SDS011;3785;52.260;4.728;2023-10-13T10:58:08;4.43;;;2.53;;
7487;SDS011;3785;52.260;4.728;2023-10-13T11:01:48;6.85;;;3.13;;
7487;SDS011;3785;52.260;4.728;2023-10-13T11:05:11;5.85;;;2.65;;
7487;SDS011;3785;52.260;4.728;2023-10-13T11:08:37;6.60;;;3.00;;
7487;SDS011;3785;52.260;4.728;2023-10-13T11:15:40;4.85;;;2.35;;
7487;SDS011;3785;52.260;4.728;2023-10-13T11:19:04;5.57;;;2.50;;
7487;SDS011;3785;52.260;4.728;2023-10-13T11:22:25;6.32;;;2.92;;
7487;SDS011;3785;52.260;4.728;2023-10-13T11:25:58;8.13;;;3.00;;
7487;SDS011;3785;52.260;4.728;2023-10-13T11:29:19;4.85;;;3.00;;
7487;SDS011;3785;52.260;4.728;2023-10-13T11:36:17;6.03;;;2.97;;
7487;SDS011;3785;52.260;4.728;2023-10-13T11:39:42;7.05;;;3.25;;
7487;SDS011;3785;52.260;4.728;2023-10-13T11:43:04;6.47;;;3.30;;
7487;SDS011;3785;52.260;4.728;2023-10-13T11:46:25;6.07;;;2.67;;
7487;SDS011;3785;52.260;4.728;2023-10-13T11:49:55;6.47;;;3.08;;
7487;SDS011;3785;52.260;4.728;2023-10-13T11:53:18;6.15;;;2.65;;
7487;SDS011;3785;52.260;4.728;2023-10-13T11:56:39;5.97;;;3.40;;
7487;SDS011;3785;52.260;4.728;2023-10-13T12:00:00;7.25;;;2.80;;
7487;SDS011;3785;52.260;4.728;2023-10-13T12:03:41;5.20;;;2.90;;
7487;SDS011;3785;52.260;4.728;2023-10-13T12:07:21;8.55;;;4.10;;
7487;SDS011;3785;52.260;4.728;2023-10-13T12:11:01;6.30;;;2.70;;
7487;SDS011;3785;52.260;4.728;2023-10-13T12:14:42;5.78;;;2.97;;
7487;SDS011;3785;52.260;4.728;2023-10-13T12:18:12;6.50;;;3.33;;
7487;SDS011;3785;52.260;4.728;2023-10-13T12:21:35;5.80;;;2.83;;
7487;SDS011;3785;52.260;4.728;2023-10-13T12:24:57;6.40;;;2.88;;
7487;SDS011;3785;52.260;4.728;2023-10-13T12:28:19;7.30;;;3.10;;
7487;SDS011;3785;52.260;4.728;2023-10-13T12:31:41;5.05;;;2.78;;
7487;SDS011;3785;52.260;4.728;2023-10-13T12:35:10;8.23;;;3.10;;
7487;SDS011;3785;52.260;4.728;2023-10-13T12:38:32;5.55;;;2.95;;
7487;SDS011;3785;52.260;4.728;2023-10-13T12:42:08;11.18;;;2.88;;
7487;SDS011;3785;52.260;4.728;2023-10-13T12:46:08;5.93;;;2.90;;
7487;SDS011;3785;52.260;4.728;2023-10-13T12:49:47;6.95;;;2.83;;
7487;SDS011;3785;52.260;4.728;2023-10-13T12:53:08;7.72;;;3.00;;
7487;SDS011;3785;52.260;4.728;2023-10-13T12:56:34;5.72;;;2.63;;
7487;SDS011;3785;52.260;4.728;2023-10-13T13:00:01;6.47;;;2.80;;
7487;SDS011;3785;52.260;4.728;2023-10-13T13:03:36;6.25;;;3.15;;
7487;SDS011;3785;52.260;4.728;2023-10-13T13:07:02;5.65;;;3.35;;
7487;SDS011;3785;52.260;4.728;2023-10-13T13:10:24;5.72;;;2.63;;
7487;SDS011;3785;52.260;4.728;2023-10-13T13:13:57;5.80;;;2.90;;
7487;SDS011;3785;52.260;4.728;2023-10-13T13:17:18;5.13;;;2.85;;
7487;SDS011;3785;52.260;4.728;2023-10-13T13:20:39;4.35;;;2.80;;
7487;SDS011;3785;52.260;4.728;2023-10-13T13:24:04;4.30;;;2.40;;
7487;SDS011;3785;52.260;4.728;2023-10-13T13:27:30;8.18;;;3.10;;
7487;SDS011;3785;52.260;4.728;2023-10-13T13:30:51;5.00;;;2.50;;
7487;SDS011;3785;52.260;4.728;2023-10-13T13:34:14;6.88;;;2.60;;
7487;SDS011;3785;52.260;4.728;2023-10-13T13:37:36;5.25;;;2.92;;
7487;SDS011;3785;52.260;4.728;2023-10-13T13:40:57;8.55;;;3.28;;
7487;SDS011;3785;52.260;4.728;2023-10-13T13:44:18;7.32;;;3.30;;
7487;SDS011;3785;52.260;4.728;2023-10-13T13:47:39;5.28;;;2.47;;
7487;SDS011;3785;52.260;4.728;2023-10-13T13:51:02;8.85;;;3.03;;
7487;SDS011;3785;52.260;4.728;2023-10-13T13:54:25;8.80;;;2.83;;
7487;SDS011;3785;52.260;4.728;2023-10-13T13:57:48;5.78;;;2.88;;
7487;SDS011;3785;52.260;4.728;2023-10-13T14:01:10;7.47;;;3.10;;
7487;SDS011;3785;52.260;4.728;2023-10-13T14:04:41;6.93;;;2.70;;
7487;SDS011;3785;52.260;4.728;2023-10-13T14:08:06;5.32;;;2.47;;
7487;SDS011;3785;52.260;4.728;2023-10-13T14:11:32;6.00;;;2.58;;
7487;SDS011;3785;52.260;4.728;2023-10-13T14:14:59;4.30;;;2.17;;
7487;SDS011;3785;52.260;4.728;2023-10-13T14:18:21;8.60;;;2.83;;
7487;SDS011;3785;52.260;4.728;2023-10-13T14:21:50;6.25;;;2.35;;
7487;SDS011;3785;52.260;4.728;2023-10-13T14:25:13;7.95;;;3.20;;
7487;SDS011;3785;52.260;4.728;2023-10-13T14:28:34;5.90;;;2.63;;
7487;SDS011;3785;52.260;4.728;2023-10-13T14:31:55;9.45;;;2.95;;
7487;SDS011;3785;52.260;4.728;2023-10-13T14:35:15;5.78;;;2.70;;
7487;SDS011;3785;52.260;4.728;2023-10-13T14:38:36;4.25;;;2.22;;
7487;SDS011;3785;52.260;4.728;2023-10-13T14:41:56;7.25;;;2.55;;
7487;SDS011;3785;52.260;4.728;2023-10-13T14:45:20;4.50;;;2.67;;
7487;SDS011;3785;52.260;4.728;2023-10-13T14:48:44;6.13;;;2.03;;
7487;SDS011;3785;52.260;4.728;2023-10-13T14:52:08;4.15;;;2.25;;
7487;SDS011;3785;52.260;4.728;2023-10-13T14:55:29;6.03;;;2.13;;
7487;SDS011;3785;52.260;4.728;2023-10-13T14:58:58;7.53;;;2.17;;
7487;SDS011;3785;52.260;4.728;2023-10-13T15:02:19;4.90;;;1.95;;
7487;SDS011;3785;52.260;4.728;2023-10-13T15:05:40;6.65;;;2.05;;
7487;SDS011;3785;52.260;4.728;2023-10-13T15:09:03;6.47;;;2.97;;
7487;SDS011;3785;52.260;4.728;2023-10-13T15:12:24;6.30;;;2.40;;
7487;SDS011;3785;52.260;4.728;2023-10-13T15:15:45;5.15;;;1.75;;
7487;SDS011;3785;52.260;4.728;2023-10-13T15:19:06;6.88;;;2.05;;
7487;SDS011;3785;52.260;4.728;2023-10-13T15:22:26;6.93;;;1.88;;
7487;SDS011;3785;52.260;4.728;2023-10-13T15:25:47;6.90;;;2.45;;
7487;SDS011;3785;52.260;4.728;2023-10-13T15:29:11;5.53;;;2.45;;
7487;SDS011;3785;52.260;4.728;2023-10-13T15:32:32;9.05;;;3.47;;
7487;SDS011;3785;52.260;4.728;2023-10-13T15:36:02;7.22;;;3.50;;
7487;SDS011;3785;52.260;4.728;2023-10-13T15:39:23;9.35;;;3.83;;
7487;SDS011;3785;52.260;4.728;2023-10-13T15:42:44;9.52;;;3.55;;
7487;SDS011;3785;52.260;4.728;2023-10-13T15:46:08;8.65;;;3.83;;
7487;SDS011;3785;52.260;4.728;2023-10-13T15:49:35;6.95;;;3.53;;
7487;SDS011;3785;52.260;4.728;2023-10-13T15:52:56;9.77;;;3.85;;
7487;SDS011;3785;52.260;4.728;2023-10-13T15:56:16;7.70;;;3.72;;
7487;SDS011;3785;52.260;4.728;2023-10-13T15:59:37;9.57;;;3.65;;
7487;SDS011;3785;52.260;4.728;2023-10-13T16:02:58;8.32;;;3.78;;
7487;SDS011;3785;52.260;4.728;2023-10-13T16:06:18;13.52;;;4.70;;
7487;SDS011;3785;52.260;4.728;2023-10-13T16:09:39;7.35;;;3.45;;
7487;SDS011;3785;52.260;4.728;2023-10-13T16:12:59;11.23;;;3.90;;
7487;SDS011;3785;52.260;4.728;2023-10-13T16:16:21;11.13;;;3.95;;
7487;SDS011;3785;52.260;4.728;2023-10-13T16:19:45;8.63;;;3.72;;
7487;SDS011;3785;52.260;4.728;2023-10-13T16:23:06;10.60;;;4.32;;
7487;SDS011;3785;52.260;4.728;2023-10-13T16:26:28;8.68;;;3.40;;
7487;SDS011;3785;52.260;4.728;2023-10-13T16:29:50;9.63;;;4.00;;
7487;SDS011;3785;52.260;4.728;2023-10-13T16:33:15;11.68;;;4.38;;
7487;SDS011;3785;52.260;4.728;2023-10-13T16:36:37;8.55;;;3.80;;
7487;SDS011;3785;52.260;4.728;2023-10-13T16:39:58;9.13;;;3.55;;
7487;SDS011;3785;52.260;4.728;2023-10-13T16:43:24;9.52;;;3.20;;
7487;SDS011;3785;52.260;4.728;2023-10-13T16:46:45;8.95;;;3.50;;
7487;SDS011;3785;52.260;4.728;2023-10-13T16:50:06;6.93;;;3.47;;
7487;SDS011;3785;52.260;4.728;2023-10-13T16:53:28;8.88;;;3.42;;
7487;SDS011;3785;52.260;4.728;2023-10-13T16:56:48;8.68;;;4.50;;
7487;SDS011;3785;52.260;4.728;2023-10-13T17:00:11;10.52;;;4.10;;
7487;SDS011;3785;52.260;4.728;2023-10-13T17:03:32;7.68;;;3.90;;
7487;SDS011;3785;52.260;4.728;2023-10-13T17:06:52;8.70;;;3.13;;
7487;SDS011;3785;52.260;4.728;2023-10-13T17:10:14;8.30;;;3.55;;
7487;SDS011;3785;52.260;4.728;2023-10-13T17:13:35;9.30;;;3.50;;
7487;SDS011;3785;52.260;4.728;2023-10-13T17:16:58;8.63;;;3.65;;
7487;SDS011;3785;52.260;4.728;2023-10-13T17:20:18;8.77;;;3.25;;
7487;SDS011;3785;52.260;4.728;2023-10-13T17:23:39;7.28;;;3.33;;
7487;SDS011;3785;52.260;4.728;2023-10-13T17:26:59;8.65;;;3.53;;
7487;SDS011;3785;52.260;4.728;2023-10-13T17:30:23;6.50;;;3.15;;
7487;SDS011;3785;52.260;4.728;2023-10-13T17:33:45;7.70;;;3.15;;
7487;SDS011;3785;52.260;4.728;2023-10-13T17:37:06;5.35;;;3.30;;
7487;SDS011;3785;52.260;4.728;2023-10-13T17:40:27;5.93;;;3.00;;
7487;SDS011;3785;52.260;4.728;2023-10-13T17:43:48;8.55;;;3.22;;
7487;SDS011;3785;52.260;4.728;2023-10-13T17:47:08;8.27;;;2.97;;
7487;SDS011;3785;52.260;4.728;2023-10-13T17:50:30;5.03;;;2.90;;
7487;SDS011;3785;52.260;4.728;2023-10-13T17:53:52;6.55;;;2.97;;
7487;SDS011;3785;52.260;4.728;2023-10-13T17:57:12;7.57;;;2.38;;
7487;SDS011;3785;52.260;4.728;2023-10-13T18:00:36;3.13;;;1.98;;
7487;SDS011;3785;52.260;4.728;2023-10-13T18:03:57;5.10;;;2.20;;
7487;SDS011;3785;52.260;4.728;2023-10-13T18:07:24;5.07;;;2.17;;
7487;SDS011;3785;52.260;4.728;2023-10-13T18:10:51;2.53;;;1.73;;
7487;SDS011;3785;52.260;4.728;2023-10-13T18:14:12;3.63;;;2.33;;
7487;SDS011;3785;52.260;4.728;2023-10-13T18:17:36;5.30;;;2.40;;
7487;SDS011;3785;52.260;4.728;2023-10-13T18:21:02;4.20;;;2.38;;
7487;SDS011;3785;52.260;4.728;2023-10-13T18:24:23;5.47;;;2.50;;
7487;SDS011;3785;52.260;4.728;2023-10-13T18:27:43;6.85;;;2.70;;
7487;SDS011;3785;52.260;4.728;2023-10-13T18:31:04;6.60;;;2.63;;
7487;SDS011;3785;52.260;4.728;2023-10-13T18:34:30;6.85;;;2.88;;
7487;SDS011;3785;52.260;4.728;2023-10-13T18:37:51;7.22;;;2.60;;
7487;SDS011;3785;52.260;4.728;2023-10-13T18:41:13;10.00;;;3.58;;
7487;SDS011;3785;52.260;4.728;2023-10-13T18:44:35;8.50;;;3.20;;
7487;SDS011;3785;52.260;4.728;2023-10-13T18:47:56;4.70;;;2.65;;
7487;SDS011;3785;52.260;4.728;2023-10-13T18:51:17;6.10;;;3.20;;
7487;SDS011;3785;52.260;4.728;2023-10-13T18:54:38;6.32;;;3.90;;
7487;SDS011;3785;52.260;4.728;2023-10-13T18:58:00;11.23;;;3.40;;
7487;SDS011;3785;52.260;4.728;2023-10-13T19:01:21;6.50;;;3.45;;
7487;SDS011;3785;52.260;4.728;2023-10-13T19:04:47;7.07;;;4.30;;
7487;SDS011;3785;52.260;4.728;2023-10-13T19:08:07;6.38;;;3.47;;
7487;SDS011;3785;52.260;4.728;2023-10-13T19:11:28;6.93;;;3.17;;
7487;SDS011;3785;52.260;4.728;2023-10-13T19:14:49;7.50;;;3.40;;
7487;SDS011;3785;52.260;4.728;2023-10-13T19:18:10;10.05;;;3.50;;
7487;SDS011;3785;52.260;4.728;2023-10-13T19:21:31;10.15;;;3.53;;
7487;SDS011;3785;52.260;4.728;2023-10-13T19:24:56;6.63;;;3.50;;
7487;SDS011;3785;52.260;4.728;2023-10-13T19:28:16;6.53;;;3.20;;
7487;SDS011;3785;52.260;4.728;2023-10-13T19:31:37;4.95;;;3.35;;
7487;SDS011;3785;52.260;4.728;2023-10-13T19:34:58;8.13;;;3.65;;
7487;SDS011;3785;52.260;4.728;2023-10-13T19:38:19;7.53;;;3.60;;
7487;SDS011;3785;52.260;4.728;2023-10-13T19:41:39;5.70;;;3.55;;
7487;SDS011;3785;52.260;4.728;2023-10-13T19:45:03;6.15;;;2.95;;
7487;SDS011;3785;52.260;4.728;2023-10-13T19:48:24;8.13;;;3.63;;
7487;SDS011;3785;52.260;4.728;2023-10-13T19:51:46;8.27;;;3.40;;
7487;SDS011;3785;52.260;4.728;2023-10-13T19:55:07;5.70;;;3.75;;
7487;SDS011;3785;52.260;4.728;2023-10-13T19:58:28;6.45;;;3.80;;
7487;SDS011;3785;52.260;4.728;2023-10-13T20:01:48;7.20;;;4.43;;
7487;SDS011;3785;52.260;4.728;2023-10-13T20:05:09;6.22;;;4.18;;
7487;SDS011;3785;52.260;4.728;2023-10-13T20:08:30;8.50;;;4.35;;
7487;SDS011;3785;52.260;4.728;2023-10-13T20:11:51;7.05;;;4.03;;
7487;SDS011;3785;52.260;4.728;2023-10-13T20:15:12;8.02;;;4.47;;
7487;SDS011;3785;52.260;4.728;2023-10-13T20:18:35;11.02;;;5.30;;
7487;SDS011;3785;52.260;4.728;2023-10-13T20:21:56;7.47;;;4.50;;
7487;SDS011;3785;52.260;4.728;2023-10-13T20:25:17;8.82;;;3.72;;
7487;SDS011;3785;52.260;4.728;2023-10-13T20:28:39;8.50;;;3.97;;
7487;SDS011;3785;52.260;4.728;2023-10-13T20:32:00;11.82;;;3.70;;
7487;SDS011;3785;52.260;4.728;2023-10-13T20:35:21;5.28;;;2.78;;
7487;SDS011;3785;52.260;4.728;2023-10-13T20:38:41;8.68;;;3.50;;
7487;SDS011;3785;52.260;4.728;2023-10-13T20:42:02;6.70;;;3.22;;
7487;SDS011;3785;52.260;4.728;2023-10-13T20:45:24;7.95;;;3.35;;
7487;SDS011;3785;52.260;4.728;2023-10-13T20:48:44;7.28;;;3.90;;
7487;SDS011;3785;52.260;4.728;2023-10-13T20:52:06;8.65;;;4.20;;
7487;SDS011;3785;52.260;4.728;2023-10-13T20:55:27;7.13;;;4.20;;
7487;SDS011;3785;52.260;4.728;2023-10-13T20:58:48;9.68;;;4.07;;
7487;SDS011;3785;52.260;4.728;2023-10-13T21:02:16;10.32;;;4.22;;
7487;SDS011;3785;52.260;4.728;2023-10-13T21:05:45;10.52;;;4.00;;
7487;SDS011;3785;52.260;4.728;2023-10-13T21:09:06;6.07;;;1.20;;
7487;SDS011;3785;52.260;4.728;2023-10-13T21:12:32;5.38;;;1.50;;
7487;SDS011;3785;52.260;4.728;2023-10-13T21:15:53;4.85;;;1.10;;
7487;SDS011;3785;52.260;4.728;2023-10-13T21:19:14;3.40;;;0.75;;
7487;SDS011;3785;52.260;4.728;2023-10-13T21:22:35;3.00;;;0.80;;
7487;SDS011;3785;52.260;4.728;2023-10-13T21:25:56;2.97;;;0.55;;